Clyde, Texas
Current Conditions -  °F | °C
As of 2:52 AM on Saturday 25 Oct 2014 (Local Time) from KABI Reporting Station
Clear Clear  
Wind Chill: 68°   Ceiling: Unl
Heat Index: 68°   Visibility: 10mi
Dew Point: 55°   Wind: 5mph
Humidity: 63%   Direction: 210°SSW
Pressure: 30.13"   Gusts: NA
Location:  32.41°N, 99.49°W
Report Text: KABI 250752Z 21004KT 10SM CLR 20/13 A3013 RMK AO2 SLP177 T02000128 $
Loading
Personal Weather Stations






























Interactive Weather Map
Tropical Storm Tracking
New forecast layout! Learn more

10-Day Weather Forecast

Advertisements
Track Severe Weather on mobile